Time;durP1;ratioP1;P1;durP2;ratioP2;P2;SDS_P1;SDS_P2;PMS_P1;PMS_P2;Temp;Humidity;BMP_temperature;BMP_pressure;BME280_temperature;BME280_humidity;BME280_pressure;Samples;Min_cycle;Max_cycle;Signal;HPM_P1;HPM_P2
2022/09/23 00:01:43;;;;;;;;;23.00;21.75;;;;;;;;5077024;27;50889;-53
2022/09/23 00:04:08;;;;;;;;;25.50;22.00;;;;;;;;5082420;27;51301;-53
2022/09/23 00:06:33;;;;;;;;;23.00;22.25;;;;;;;;5077144;27;50880;-52
2022/09/23 00:08:58;;;;;;;;;23.50;23.00;;;;;;;;5075375;27;50906;-53
2022/09/23 00:11:25;;;;;;;;;19.50;18.25;;;;;;;;5078935;27;51410;-53
2022/09/23 00:13:52;;;;;;;;;22.75;21.75;;;;;;;;5076374;27;51907;-53
2022/09/23 00:16:20;;;;;;;;;20.00;19.00;;;;;;;;5074381;27;51221;-52
2022/09/23 00:18:45;;;;;;;;;20.75;19.75;;;;;;;;5079517;27;50934;-54
2022/09/23 00:21:12;;;;;;;;;20.00;19.25;;;;;;;;5076874;27;50942;-55
2022/09/23 00:23:39;;;;;;;;;19.00;18.75;;;;;;;;5076096;27;52319;-54
2022/09/23 00:26:05;;;;;;;;;20.25;20.25;;;;;;;;5080931;27;51205;-52
2022/09/23 00:28:30;;;;;;;;;23.00;22.00;;;;;;;;5080792;27;51110;-53
2022/09/23 00:30:56;;;;;;;;;25.25;24.00;;;;;;;;5077023;27;51285;-53
2022/09/23 00:33:21;;;;;;;;;22.25;21.25;;;;;;;;5079113;27;52635;-54
2022/09/23 00:35:46;;;;;;;;;21.50;19.75;;;;;;;;5074135;27;51186;-55
2022/09/23 00:38:13;;;;;;;;;21.25;19.00;;;;;;;;5073041;27;51341;-52
2022/09/23 00:40:45;;;;;;;;;20.75;18.75;;;;;;;;5076646;27;51437;-54
2022/09/23 00:43:12;;;;;;;;;22.00;20.75;;;;;;;;5075756;27;51235;-53
2022/09/23 00:45:38;;;;;;;;;20.50;19.00;;;;;;;;5082276;27;51461;-54
2022/09/23 00:48:04;;;;;;;;;19.75;19.25;;;;;;;;5079139;27;51190;-55
2022/09/23 00:50:35;;;;;;;;;20.75;20.50;;;;;;;;5068929;27;50947;-54
2022/09/23 00:53:02;;;;;;;;;21.00;19.00;;;;;;;;5075148;27;51357;-53
2022/09/23 00:55:31;;;;;;;;;22.00;20.75;;;;;;;;5062459;27;51354;-54
2022/09/23 00:57:58;;;;;;;;;23.00;21.00;;;;;;;;5068948;27;51259;-52
2022/09/23 01:00:24;;;;;;;;;24.50;23.75;;;;;;;;5063502;27;51106;-53
2022/09/23 01:02:50;;;;;;;;;23.00;22.25;;;;;;;;5060173;27;51947;-53
2022/09/23 01:05:16;;;;;;;;;17.75;17.00;;;;;;;;5071892;27;51264;-52
2022/09/23 01:07:41;;;;;;;;;19.00;18.25;;;;;;;;5076023;27;51445;-53
2022/09/23 01:10:07;;;;;;;;;22.00;20.00;;;;;;;;5075679;27;51365;-53
2022/09/23 01:12:35;;;;;;;;;15.50;15.50;;;;;;;;5079873;27;51137;-53
2022/09/23 01:15:20;;;;;;;;;21.50;19.25;;;;;;;;5072139;27;51266;-54
2022/09/23 01:18:04;;;;;;;;;19.50;18.50;;;;;;;;5081275;27;51118;-53
2022/09/23 01:20:40;;;;;;;;;20.75;20.75;;;;;;;;5080770;27;52137;-51
2022/09/23 01:23:12;;;;;;;;;20.75;20.25;;;;;;;;5076637;27;52781;-53
2022/09/23 01:25:56;;;;;;;;;21.50;19.25;;;;;;;;5085372;27;51022;-53
2022/09/23 01:28:32;;;;;;;;;22.50;20.00;;;;;;;;5085067;27;51211;-51
2022/09/23 01:31:16;;;;;;;;;21.75;19.50;;;;;;;;5078894;27;51298;-50
2022/09/23 01:34:01;;;;;;;;;19.00;18.75;;;;;;;;5076347;27;52065;-52
2022/09/23 01:36:33;;;;;;;;;19.75;18.75;;;;;;;;5080817;27;51332;-53
2022/09/23 01:39:04;;;;;;;;;21.50;21.00;;;;;;;;5085070;27;51108;-52
2022/09/23 01:41:48;;;;;;;;;20.25;18.75;;;;;;;;5084339;27;51397;-54
2022/09/23 01:44:19;;;;;;;;;17.00;15.25;;;;;;;;5079472;27;51205;-53
2022/09/23 01:46:51;;;;;;;;;21.50;21.00;;;;;;;;5072425;27;51297;-53
2022/09/23 01:49:18;;;;;;;;;17.75;17.00;;;;;;;;5073768;27;51245;-52
2022/09/23 01:51:49;;;;;;;;;20.75;19.75;;;;;;;;5071070;27;51099;-54
2022/09/23 01:54:15;;;;;;;;;23.00;20.00;;;;;;;;5080238;27;51270;-54
2022/09/23 01:57:06;;;;;;;;;22.00;19.75;;;;;;;;5072661;27;51296;-53
2022/09/23 01:59:40;;;;;;;;;19.50;19.25;;;;;;;;5071962;27;51262;-53
2022/09/23 02:02:10;;;;;;;;;22.50;20.25;;;;;;;;5072186;27;51222;-53
2022/09/23 02:04:55;;;;;;;;;18.50;17.50;;;;;;;;5077609;27;52011;-54
2022/09/23 02:07:24;;;;;;;;;21.25;19.00;;;;;;;;5072064;27;51155;-52
2022/09/23 02:09:54;;;;;;;;;18.75;18.00;;;;;;;;5077752;27;51834;-52
2022/09/23 02:12:23;;;;;;;;;19.00;17.75;;;;;;;;5070976;27;51359;-53
2022/09/23 02:15:14;;;;;;;;;20.25;19.50;;;;;;;;5072641;27;51823;-52
2022/09/23 02:17:45;;;;;;;;;20.25;19.25;;;;;;;;5083743;27;51138;-53
2022/09/23 02:20:12;;;;;;;;;16.25;16.00;;;;;;;;5086363;27;51135;-52
2022/09/23 02:22:47;;;;;;;;;17.00;16.75;;;;;;;;5070072;27;51233;-52
2022/09/23 02:25:15;;;;;;;;;20.25;19.00;;;;;;;;5072331;27;52543;-54
2022/09/23 02:27:52;;;;;;;;;14.75;14.50;;;;;;;;5071123;27;51251;-53
2022/09/23 02:30:25;;;;;;;;;14.00;14.00;;;;;;;;5071659;27;51280;-52
2022/09/23 02:32:51;;;;;;;;;15.75;15.00;;;;;;;;5071361;27;51001;-52
2022/09/23 02:35:23;;;;;;;;;15.00;14.75;;;;;;;;5079774;27;51967;-52
2022/09/23 02:37:52;;;;;;;;;15.75;13.50;;;;;;;;5077960;27;51218;-54
2022/09/23 02:40:23;;;;;;;;;17.75;16.75;;;;;;;;5090235;27;51303;-51
2022/09/23 02:42:55;;;;;;;;;17.00;15.00;;;;;;;;5083365;27;51526;-54
2022/09/23 02:45:20;;;;;;;;;15.00;15.00;;;;;;;;5077393;27;52193;-53
2022/09/23 02:47:49;;;;;;;;;13.75;13.00;;;;;;;;5070570;27;51030;-53
2022/09/23 02:50:14;;;;;;;;;17.00;17.00;;;;;;;;5087112;27;51104;-51
2022/09/23 02:52:40;;;;;;;;;19.75;17.00;;;;;;;;5089443;27;51277;-54
2022/09/23 02:55:07;;;;;;;;;15.00;14.75;;;;;;;;5077813;27;51813;-57
2022/09/23 02:57:32;;;;;;;;;13.00;12.25;;;;;;;;5073690;27;51133;-53
2022/09/23 02:59:58;;;;;;;;;13.75;12.25;;;;;;;;5090152;27;51148;-51
2022/09/23 03:02:50;;;;;;;;;16.25;15.50;;;;;;;;5074431;27;50893;-53
2022/09/23 03:05:18;;;;;;;;;14.00;13.00;;;;;;;;5060171;27;51976;-53
2022/09/23 03:08:05;;;;;;;;;17.50;16.75;;;;;;;;5070265;27;51356;-53
2022/09/23 03:10:36;;;;;;;;;16.50;15.25;;;;;;;;5089178;27;51269;-54
2022/09/23 03:13:12;;;;;;;;;17.75;17.00;;;;;;;;5088624;27;50880;-53
2022/09/23 03:15:58;;;;;;;;;20.50;18.25;;;;;;;;5080679;27;52024;-52
2022/09/23 03:18:30;;;;;;;;;19.00;18.75;;;;;;;;5071964;27;51080;-52
2022/09/23 03:20:57;;;;;;;;;14.75;13.75;;;;;;;;5071618;27;51271;-54
2022/09/23 03:23:26;;;;;;;;;19.00;19.00;;;;;;;;5072365;27;51804;-54
2022/09/23 03:25:53;;;;;;;;;21.00;20.00;;;;;;;;5074928;27;52211;-53
2022/09/23 03:28:20;;;;;;;;;19.50;17.50;;;;;;;;5081554;27;51178;-54
2022/09/23 03:30:46;;;;;;;;;19.00;18.50;;;;;;;;5079923;27;51302;-54
2022/09/23 03:33:15;;;;;;;;;20.25;19.00;;;;;;;;5077483;27;51159;-54
2022/09/23 03:38:36;;;;;;;;;21.00;19.75;;;;;;;;5076869;27;51320;-51
2022/09/23 03:41:03;;;;;;;;;19.00;17.50;;;;;;;;5084068;27;51234;-54
2022/09/23 03:43:28;;;;;;;;;20.00;19.00;;;;;;;;5069725;27;51329;-53
2022/09/23 03:45:57;;;;;;;;;17.00;17.00;;;;;;;;5066281;27;52207;-54
2022/09/23 03:48:22;;;;;;;;;19.00;19.00;;;;;;;;5069179;27;51105;-54
2022/09/23 03:50:48;;;;;;;;;18.25;16.75;;;;;;;;5074473;27;51112;-54
2022/09/23 03:53:13;;;;;;;;;20.00;18.50;;;;;;;;5085319;27;52332;-51
2022/09/23 03:55:39;;;;;;;;;18.00;17.50;;;;;;;;5088050;27;51723;-52
2022/09/23 03:58:05;;;;;;;;;13.50;13.50;;;;;;;;5074563;27;50881;-53
2022/09/23 04:00:30;;;;;;;;;15.75;15.75;;;;;;;;5081454;27;51299;-55
2022/09/23 04:02:56;;;;;;;;;21.25;19.25;;;;;;;;5084781;27;51309;-53
2022/09/23 04:05:21;;;;;;;;;18.75;17.75;;;;;;;;5079451;27;51157;-52
2022/09/23 04:07:48;;;;;;;;;18.50;18.50;;;;;;;;5084787;27;51155;-52
2022/09/23 04:10:13;;;;;;;;;19.00;17.00;;;;;;;;5078316;27;51254;-51
2022/09/23 04:12:38;;;;;;;;;19.50;18.50;;;;;;;;5081672;27;51083;-54
2022/09/23 04:15:03;;;;;;;;;16.25;16.25;;;;;;;;5091338;27;52039;-54
2022/09/23 04:17:29;;;;;;;;;22.50;20.00;;;;;;;;5081579;27;51073;-54
2022/09/23 04:19:54;;;;;;;;;19.00;18.25;;;;;;;;5077634;27;51978;-55
2022/09/23 04:22:19;;;;;;;;;17.75;17.75;;;;;;;;5076872;27;51516;-52
2022/09/23 04:24:44;;;;;;;;;18.00;17.75;;;;;;;;5073756;27;51034;-54
2022/09/23 04:27:09;;;;;;;;;19.00;18.50;;;;;;;;5074070;27;51173;-53
2022/09/23 04:29:35;;;;;;;;;17.25;16.25;;;;;;;;5078684;27;51096;-56
2022/09/23 04:32:00;;;;;;;;;17.50;16.75;;;;;;;;5087758;27;51397;-53
2022/09/23 04:34:25;;;;;;;;;19.25;18.25;;;;;;;;5074317;27;52166;-55
2022/09/23 04:36:50;;;;;;;;;19.75;18.50;;;;;;;;5081380;27;51045;-53
2022/09/23 04:39:16;;;;;;;;;18.50;17.25;;;;;;;;5076044;27;51108;-53
2022/09/23 04:41:41;;;;;;;;;17.50;16.75;;;;;;;;5077414;27;51134;-53
2022/09/23 04:44:07;;;;;;;;;16.50;16.50;;;;;;;;5075743;27;53402;-54
2022/09/23 04:46:32;;;;;;;;;18.25;16.75;;;;;;;;5081056;27;50896;-52
2022/09/23 04:48:57;;;;;;;;;16.00;16.00;;;;;;;;5079319;27;51070;-54
2022/09/23 04:51:23;;;;;;;;;18.25;18.25;;;;;;;;5077456;27;51151;-53
2022/09/23 04:53:50;;;;;;;;;17.25;16.50;;;;;;;;5078899;27;51749;-54
2022/09/23 04:56:17;;;;;;;;;16.75;16.25;;;;;;;;5072286;27;51007;-55
2022/09/23 04:58:42;;;;;;;;;18.25;17.75;;;;;;;;5072721;27;51753;-52
2022/09/23 05:01:09;;;;;;;;;20.75;18.75;;;;;;;;5070150;27;51411;-53
2022/09/23 05:03:34;;;;;;;;;19.00;19.00;;;;;;;;5073359;27;54103;-54
2022/09/23 05:06:00;;;;;;;;;18.50;18.50;;;;;;;;5076769;27;51299;-53
2022/09/23 05:08:26;;;;;;;;;16.50;16.25;;;;;;;;5072054;27;51360;-51
2022/09/23 05:10:55;;;;;;;;;19.00;18.75;;;;;;;;5084147;27;51261;-53
2022/09/23 05:13:20;;;;;;;;;20.75;19.75;;;;;;;;5080301;27;51172;-53
2022/09/23 05:15:45;;;;;;;;;14.25;12.75;;;;;;;;5084384;27;51297;-53
2022/09/23 05:18:10;;;;;;;;;19.00;19.00;;;;;;;;5083420;27;51669;-54
2022/09/23 05:20:35;;;;;;;;;19.50;17.50;;;;;;;;5084549;27;51299;-53
2022/09/23 05:23:01;;;;;;;;;20.75;19.50;;;;;;;;5084435;27;51403;-53
2022/09/23 05:25:26;;;;;;;;;17.00;17.00;;;;;;;;5082973;27;51093;-54
2022/09/23 05:27:51;;;;;;;;;21.00;20.00;;;;;;;;5076397;27;51503;-54
2022/09/23 05:30:16;;;;;;;;;17.75;17.75;;;;;;;;5073684;27;51300;-52
2022/09/23 05:32:42;;;;;;;;;18.00;18.00;;;;;;;;5078448;27;51709;-54
2022/09/23 05:35:07;;;;;;;;;21.00;19.50;;;;;;;;5074815;27;51241;-53
2022/09/23 05:37:32;;;;;;;;;16.75;16.75;;;;;;;;5085301;27;51122;-54
2022/09/23 05:39:57;;;;;;;;;20.25;19.75;;;;;;;;5086214;27;51238;-52
2022/09/23 05:42:23;;;;;;;;;21.00;19.50;;;;;;;;5072653;27;51352;-51
2022/09/23 05:44:48;;;;;;;;;21.25;20.50;;;;;;;;5072922;27;51131;-53
2022/09/23 05:47:13;;;;;;;;;21.25;21.25;;;;;;;;5077538;27;51412;-52
2022/09/23 05:49:38;;;;;;;;;22.25;20.50;;;;;;;;5074393;27;51426;-54
2022/09/23 05:52:03;;;;;;;;;21.25;21.25;;;;;;;;5079069;27;52243;-53
2022/09/23 05:54:29;;;;;;;;;20.50;20.25;;;;;;;;5087422;27;51073;-54
2022/09/23 05:56:54;;;;;;;;;23.75;20.25;;;;;;;;5089364;27;51106;-54
2022/09/23 05:59:19;;;;;;;;;19.50;19.25;;;;;;;;5075165;27;51166;-59
2022/09/23 06:01:45;;;;;;;;;18.50;18.00;;;;;;;;5080389;27;53068;-55
2022/09/23 06:04:11;;;;;;;;;22.00;21.00;;;;;;;;5066699;27;51078;-53
2022/09/23 06:06:37;;;;;;;;;26.00;25.25;;;;;;;;5074701;27;51048;-53
2022/09/23 06:09:03;;;;;;;;;21.75;20.25;;;;;;;;5071690;27;51111;-54
2022/09/23 06:11:29;;;;;;;;;24.00;24.00;;;;;;;;5074991;27;52245;-55
2022/09/23 06:13:55;;;;;;;;;19.25;18.50;;;;;;;;5082344;27;50875;-50
2022/09/23 06:16:20;;;;;;;;;26.50;22.75;;;;;;;;5068498;27;50947;-52
2022/09/23 06:18:46;;;;;;;;;21.75;20.75;;;;;;;;5084452;27;51166;-54
2022/09/23 06:21:13;;;;;;;;;22.25;21.50;;;;;;;;5071482;27;52230;-54
2022/09/23 06:23:38;;;;;;;;;22.25;20.50;;;;;;;;5073915;27;51385;-52
2022/09/23 06:26:04;;;;;;;;;22.50;21.75;;;;;;;;5069999;27;52506;-53
2022/09/23 06:28:31;;;;;;;;;24.75;23.75;;;;;;;;5081889;27;51016;-53
2022/09/23 06:30:57;;;;;;;;;24.75;22.25;;;;;;;;5079670;27;52963;-55
2022/09/23 06:33:22;;;;;;;;;22.25;19.50;;;;;;;;5079866;27;51208;-53
2022/09/23 06:35:47;;;;;;;;;23.00;21.50;;;;;;;;5072744;27;51270;-53
2022/09/23 06:38:13;;;;;;;;;23.00;21.50;;;;;;;;5066482;27;51329;-53
2022/09/23 06:40:38;;;;;;;;;21.50;21.50;;;;;;;;5073110;27;51156;-53
2022/09/23 06:43:03;;;;;;;;;22.75;21.25;;;;;;;;5075647;27;51247;-53
2022/09/23 06:45:28;;;;;;;;;21.00;19.00;;;;;;;;5068066;27;51115;-52
2022/09/23 06:47:57;;;;;;;;;25.75;22.25;;;;;;;;5073425;27;51377;-55
2022/09/23 06:50:23;;;;;;;;;22.75;21.75;;;;;;;;5071121;27;52725;-52
2022/09/23 06:52:49;;;;;;;;;22.25;21.50;;;;;;;;5073117;27;51246;-54
2022/09/23 06:55:15;;;;;;;;;19.75;18.50;;;;;;;;5071759;27;51420;-54
2022/09/23 06:57:40;;;;;;;;;23.00;22.50;;;;;;;;5076758;27;51124;-53
2022/09/23 07:00:06;;;;;;;;;25.25;22.75;;;;;;;;5077410;27;51222;-54
2022/09/23 07:02:31;;;;;;;;;21.00;21.00;;;;;;;;5077090;27;51083;-55
2022/09/23 07:04:56;;;;;;;;;26.25;21.50;;;;;;;;5074615;27;51018;-55
2022/09/23 07:07:22;;;;;;;;;23.50;23.00;;;;;;;;5085597;27;51651;-55
2022/09/23 07:09:47;;;;;;;;;22.50;21.00;;;;;;;;5074783;27;52010;-53
2022/09/23 07:12:12;;;;;;;;;23.75;21.75;;;;;;;;5075520;27;51210;-55
2022/09/23 07:14:38;;;;;;;;;18.00;17.75;;;;;;;;5075401;27;51119;-54
2022/09/23 07:17:03;;;;;;;;;17.75;17.50;;;;;;;;5073995;27;51064;-53
2022/09/23 07:19:29;;;;;;;;;21.00;18.50;;;;;;;;5070607;27;51149;-53
2022/09/23 07:21:54;;;;;;;;;23.00;22.25;;;;;;;;5089295;27;51230;-55
2022/09/23 07:24:19;;;;;;;;;23.00;22.25;;;;;;;;5077202;27;50862;-54
2022/09/23 07:26:45;;;;;;;;;21.75;21.00;;;;;;;;5080564;27;51430;-54
2022/09/23 07:29:11;;;;;;;;;24.25;22.75;;;;;;;;5081813;27;51797;-52
2022/09/23 07:31:37;;;;;;;;;23.75;23.25;;;;;;;;5082474;27;51288;-54
2022/09/23 07:34:02;;;;;;;;;23.25;21.25;;;;;;;;5083122;27;51156;-54
2022/09/23 07:36:28;;;;;;;;;22.00;22.00;;;;;;;;5081687;27;50926;-54
2022/09/23 07:38:58;;;;;;;;;23.25;23.00;;;;;;;;5085835;27;52181;-53
2022/09/23 07:41:26;;;;;;;;;25.50;24.50;;;;;;;;5093107;27;51095;-54
2022/09/23 07:43:54;;;;;;;;;31.50;27.75;;;;;;;;5082448;27;50835;-53
2022/09/23 07:46:19;;;;;;;;;26.25;24.75;;;;;;;;5080675;27;51071;-54
2022/09/23 07:48:44;;;;;;;;;27.25;26.00;;;;;;;;5093682;27;51169;-52
2022/09/23 07:51:16;;;;;;;;;30.50;29.50;;;;;;;;5090663;27;51173;-53
2022/09/23 07:53:42;;;;;;;;;22.75;22.50;;;;;;;;5086294;27;50972;-55
2022/09/23 07:56:07;;;;;;;;;27.75;26.00;;;;;;;;5076276;27;51146;-54
2022/09/23 07:58:33;;;;;;;;;25.25;23.50;;;;;;;;5082774;27;51934;-53
2022/09/23 08:01:09;;;;;;;;;32.00;30.50;;;;;;;;5085482;27;51131;-53
2022/09/23 08:03:35;;;;;;;;;26.75;24.00;;;;;;;;5075365;27;51008;-52
2022/09/23 08:06:04;;;;;;;;;28.00;26.25;;;;;;;;5076441;27;51276;-53
2022/09/23 08:08:29;;;;;;;;;24.50;24.50;;;;;;;;5073107;27;51184;-52
2022/09/23 08:11:02;;;;;;;;;25.25;23.75;;;;;;;;5076735;27;51212;-53
2022/09/23 08:13:28;;;;;;;;;25.00;24.25;;;;;;;;5076672;27;51394;-55
2022/09/23 08:15:53;;;;;;;;;30.50;29.25;;;;;;;;5083002;27;51116;-52
2022/09/23 08:18:18;;;;;;;;;28.50;27.00;;;;;;;;5078570;27;51162;-53
2022/09/23 08:20:43;;;;;;;;;27.50;26.25;;;;;;;;5081536;27;51120;-53
2022/09/23 08:23:12;;;;;;;;;23.75;23.50;;;;;;;;5086652;27;50905;-53
2022/09/23 08:25:37;;;;;;;;;29.25;29.25;;;;;;;;5086845;27;51063;-53
2022/09/23 08:28:02;;;;;;;;;27.00;26.50;;;;;;;;5074598;27;51169;-54
2022/09/23 08:30:28;;;;;;;;;28.25;28.25;;;;;;;;5073602;27;51200;-53
2022/09/23 08:32:53;;;;;;;;;23.00;22.25;;;;;;;;5081340;27;51329;-55
2022/09/23 08:35:19;;;;;;;;;24.75;23.75;;;;;;;;5086047;27;51196;-54
2022/09/23 08:37:44;;;;;;;;;26.75;25.25;;;;;;;;5091304;27;52207;-53
2022/09/23 08:40:09;;;;;;;;;26.50;25.50;;;;;;;;5072436;27;53551;-54
2022/09/23 08:42:37;;;;;;;;;30.75;28.50;;;;;;;;5076805;27;51714;-54
2022/09/23 08:45:04;;;;;;;;;27.75;27.75;;;;;;;;5081677;27;51612;-53
2022/09/23 08:47:45;;;;;;;;;28.75;28.50;;;;;;;;5090664;27;51981;-54
2022/09/23 08:50:14;;;;;;;;;22.75;20.25;;;;;;;;5077099;27;51168;-54
2022/09/23 08:52:49;;;;;;;;;26.50;25.25;;;;;;;;5077771;27;51080;-53
2022/09/23 08:55:14;;;;;;;;;27.50;26.50;;;;;;;;5093349;27;50924;-52
2022/09/23 08:57:58;;;;;;;;;29.00;27.50;;;;;;;;5078262;27;51848;-55
2022/09/23 09:00:29;;;;;;;;;31.75;30.75;;;;;;;;5088858;27;51198;-52
2022/09/23 09:02:55;;;;;;;;;24.50;22.25;;;;;;;;5079259;27;51259;-53
2022/09/23 09:05:25;;;;;;;;;25.00;25.00;;;;;;;;5086090;27;50993;-54
2022/09/23 09:07:51;;;;;;;;;29.00;27.00;;;;;;;;5083712;27;51347;-53
2022/09/23 09:10:32;;;;;;;;;29.00;27.00;;;;;;;;5086079;27;50910;-54
2022/09/23 09:12:59;;;;;;;;;27.50;26.00;;;;;;;;5081894;27;51163;-54
2022/09/23 09:15:27;;;;;;;;;24.75;24.50;;;;;;;;5083840;27;51327;-52
2022/09/23 09:17:58;;;;;;;;;24.50;24.25;;;;;;;;5085601;27;52535;-54
2022/09/23 09:20:28;;;;;;;;;24.75;24.00;;;;;;;;5074313;27;51176;-54
2022/09/23 09:22:58;;;;;;;;;22.25;22.25;;;;;;;;5072258;27;51234;-52
2022/09/23 09:25:29;;;;;;;;;25.50;24.00;;;;;;;;5086775;27;52218;-52
2022/09/23 09:27:56;;;;;;;;;25.50;25.00;;;;;;;;5077986;27;51966;-52
2022/09/23 09:30:21;;;;;;;;;27.00;26.50;;;;;;;;5077793;27;51162;-54
2022/09/23 09:33:09;;;;;;;;;25.75;25.25;;;;;;;;5073511;27;51349;-54
2022/09/23 09:35:40;;;;;;;;;25.00;24.00;;;;;;;;5080007;27;51140;-53
2022/09/23 09:38:06;;;;;;;;;27.25;25.50;;;;;;;;5086933;27;51181;-55
2022/09/23 09:40:33;;;;;;;;;30.50;27.25;;;;;;;;5087972;27;51136;-52
2022/09/23 09:42:59;;;;;;;;;25.00;23.25;;;;;;;;5078215;27;51115;-53
2022/09/23 09:45:30;;;;;;;;;34.00;31.75;;;;;;;;5085065;27;51123;-53
2022/09/23 09:47:55;;;;;;;;;28.75;28.00;;;;;;;;5083782;27;51795;-53
2022/09/23 09:50:39;;;;;;;;;25.75;24.75;;;;;;;;5076855;27;51066;-54
2022/09/23 09:53:24;;;;;;;;;29.75;27.50;;;;;;;;5077007;27;51205;-52
2022/09/23 09:56:06;;;;;;;;;31.00;28.50;;;;;;;;5079384;27;51391;-53
2022/09/23 09:58:44;;;;;;;;;24.75;23.50;;;;;;;;5073826;27;51190;-52
2022/09/23 10:01:28;;;;;;;;;20.50;19.75;;;;;;;;5077749;27;51164;-54
2022/09/23 10:04:02;;;;;;;;;22.50;22.25;;;;;;;;5078530;27;51185;-56
2022/09/23 10:06:32;;;;;;;;;25.25;23.75;;;;;;;;5075764;27;51087;-54
2022/09/23 10:09:00;;;;;;;;;25.75;23.75;;;;;;;;5071671;27;51155;-52
2022/09/23 10:11:26;;;;;;;;;26.50;25.00;;;;;;;;5080223;27;51245;-55
2022/09/23 10:14:04;;;;;;;;;27.50;26.75;;;;;;;;5079794;27;51148;-52
2022/09/23 10:16:31;;;;;;;;;24.25;24.00;;;;;;;;5075925;27;50983;-54
2022/09/23 10:18:57;;;;;;;;;26.50;26.50;;;;;;;;5077049;27;51079;-55
2022/09/23 10:21:23;;;;;;;;;25.75;23.75;;;;;;;;5070536;27;56209;-54
2022/09/23 10:23:56;;;;;;;;;27.75;25.25;;;;;;;;5077197;27;51025;-53
2022/09/23 10:26:31;;;;;;;;;25.75;25.25;;;;;;;;5082031;27;51318;-52
2022/09/23 10:28:59;;;;;;;;;28.25;25.75;;;;;;;;5078643;27;51123;-51
2022/09/23 10:31:26;;;;;;;;;29.00;27.00;;;;;;;;5079802;27;51115;-53
2022/09/23 10:33:58;;;;;;;;;23.50;23.50;;;;;;;;5080959;27;51115;-52
2022/09/23 10:36:24;;;;;;;;;22.75;22.50;;;;;;;;5070811;27;51228;-53
2022/09/23 10:38:51;;;;;;;;;25.25;24.00;;;;;;;;5082436;27;51073;-52
2022/09/23 10:47:16;;;;;;;;;24.75;23.75;;;;;;;;5071214;28;50945;-54
2022/09/23 10:49:51;;;;;;;;;25.50;24.75;;;;;;;;5071458;27;51225;-56
2022/09/23 10:52:30;;;;;;;;;29.00;26.00;;;;;;;;5074619;27;50929;-55
2022/09/23 10:55:06;;;;;;;;;22.25;21.00;;;;;;;;5074656;27;51017;-53
2022/09/23 10:57:39;;;;;;;;;22.50;21.75;;;;;;;;5072081;27;51967;-53
2022/09/23 11:00:13;;;;;;;;;27.50;26.75;;;;;;;;5071179;28;52068;-53
2022/09/23 11:02:51;;;;;;;;;22.00;22.00;;;;;;;;5071095;27;51072;-53
2022/09/23 11:05:22;;;;;;;;;23.25;21.50;;;;;;;;5071710;28;51162;-50
2022/09/23 11:07:56;;;;;;;;;17.50;17.50;;;;;;;;5071256;27;51053;-53
2022/09/23 11:10:39;;;;;;;;;16.25;15.00;;;;;;;;5070938;27;52088;-53
2022/09/23 11:13:07;;;;;;;;;16.25;15.75;;;;;;;;5074221;27;50855;-53
2022/09/23 11:15:36;;;;;;;;;20.50;19.25;;;;;;;;5077566;27;51064;-55
2022/09/23 11:18:20;;;;;;;;;16.50;15.50;;;;;;;;5075593;27;51083;-54
2022/09/23 11:21:20;;;;;;;;;19.25;18.75;;;;;;;;5074680;27;52192;-55
2022/09/23 11:23:54;;;;;;;;;19.50;18.25;;;;;;;;5086979;27;50954;-55
2022/09/23 11:26:39;;;;;;;;;19.00;18.00;;;;;;;;5078002;27;50852;-53
2022/09/23 11:29:10;;;;;;;;;24.50;23.00;;;;;;;;5080105;27;51003;-55
2022/09/23 11:31:56;;;;;;;;;20.75;19.75;;;;;;;;5095020;27;50929;-53
2022/09/23 11:34:33;;;;;;;;;19.50;19.25;;;;;;;;5095140;27;51201;-54
2022/09/23 11:37:14;;;;;;;;;16.25;16.25;;;;;;;;5095108;27;50952;-54
2022/09/23 11:39:44;;;;;;;;;20.50;18.00;;;;;;;;5095563;27;51208;-54
2022/09/23 11:42:18;;;;;;;;;20.00;18.75;;;;;;;;5095022;27;51990;-53
2022/09/23 11:44:47;;;;;;;;;19.25;17.25;;;;;;;;5095308;27;51024;-53
2022/09/23 11:47:25;;;;;;;;;20.25;20.25;;;;;;;;5094780;27;51004;-55
2022/09/23 11:50:00;;;;;;;;;18.00;18.00;;;;;;;;5094817;27;51034;-55
2022/09/23 11:52:28;;;;;;;;;22.00;21.25;;;;;;;;5090525;27;51147;-52
2022/09/23 11:54:53;;;;;;;;;20.75;20.00;;;;;;;;5076684;27;50874;-53
2022/09/23 11:57:41;;;;;;;;;17.80;15.00;;;;;;;;5074459;27;51274;-55
2022/09/23 12:00:14;;;;;;;;;22.25;22.25;;;;;;;;5074527;27;51247;-54
2022/09/23 12:02:54;;;;;;;;;22.50;21.25;;;;;;;;5079416;27;51112;-53
2022/09/23 12:05:22;;;;;;;;;21.75;20.75;;;;;;;;5074059;27;51154;-54
2022/09/23 12:07:50;;;;;;;;;22.25;19.75;;;;;;;;5072125;28;51060;-53
2022/09/23 12:10:16;;;;;;;;;16.25;15.75;;;;;;;;5073767;27;52385;-53
2022/09/23 12:12:56;;;;;;;;;22.00;22.00;;;;;;;;5073503;27;51083;-53
2022/09/23 12:15:25;;;;;;;;;60.75;50.00;;;;;;;;5073929;27;51077;-53
2022/09/23 12:17:59;;;;;;;;;55.75;46.00;;;;;;;;5074506;27;50852;-54
2022/09/23 12:20:27;;;;;;;;;17.75;17.75;;;;;;;;5073569;27;51083;-54
2022/09/23 12:22:55;;;;;;;;;17.25;16.00;;;;;;;;5073390;27;51826;-53
2022/09/23 12:25:38;;;;;;;;;19.50;19.00;;;;;;;;5073024;27;51076;-54
2022/09/23 12:28:05;;;;;;;;;19.50;17.75;;;;;;;;5073540;27;51063;-51
2022/09/23 12:30:32;;;;;;;;;11.33;11.00;;;;;;;;5090550;27;51242;-54
2022/09/23 12:33:16;;;;;;;;;13.00;13.00;;;;;;;;5093530;27;52503;-55
2022/09/23 12:35:44;;;;;;;;;12.00;12.00;;;;;;;;5093918;27;50967;-55
2022/09/23 12:38:17;;;;;;;;;13.33;12.67;;;;;;;;5070549;27;51655;-53
2022/09/23 12:40:43;;;;;;;;;15.00;13.67;;;;;;;;5074973;27;51368;-55
2022/09/23 12:43:30;;;;;;;;;11.00;11.00;;;;;;;;5072804;27;52281;-54
2022/09/23 12:46:17;;;;;;;;;12.00;12.00;;;;;;;;5073036;27;50933;-53
2022/09/23 12:48:43;;;;;;;;;15.75;15.25;;;;;;;;5074546;27;51080;-55
2022/09/23 12:51:15;;;;;;;;;14.75;14.25;;;;;;;;5089968;27;51299;-54
2022/09/23 12:53:46;;;;;;;;;15.25;13.75;;;;;;;;5080781;27;51303;-54
2022/09/23 12:56:18;;;;;;;;;12.00;10.67;;;;;;;;5077784;27;51123;-52
2022/09/23 12:58:43;;;;;;;;;12.67;12.33;;;;;;;;5093562;27;51067;-54
2022/09/23 13:01:17;;;;;;;;;9.00;8.00;;;;;;;;5094086;27;51146;-55
2022/09/23 13:06:41;;;;;;;;;9.33;9.00;;;;;;;;5072403;27;51245;-54
2022/09/23 13:09:12;;;;;;;;;8.00;8.00;;;;;;;;5072668;27;51196;-53
2022/09/23 13:11:40;;;;;;;;;10.67;10.67;;;;;;;;5072575;27;51196;-54
2022/09/23 13:14:06;;;;;;;;;11.00;10.00;;;;;;;;5089610;27;52965;-54
2022/09/23 13:16:31;;;;;;;;;11.33;11.33;;;;;;;;5091730;27;51021;-54
2022/09/23 13:18:57;;;;;;;;;10.67;9.67;;;;;;;;5093326;27;50954;-54
2022/09/23 13:21:41;;;;;;;;;9.33;9.00;;;;;;;;5093531;27;51284;-56
2022/09/23 13:24:12;;;;;;;;;12.00;12.00;;;;;;;;5093343;27;52147;-54
2022/09/23 13:26:38;;;;;;;;;14.33;13.67;;;;;;;;5089020;27;51095;-53
2022/09/23 13:29:05;;;;;;;;;11.67;11.67;;;;;;;;5087423;27;51084;-54
2022/09/23 13:31:30;;;;;;;;;14.75;13.75;;;;;;;;5072725;27;51065;-54
2022/09/23 13:34:00;;;;;;;;;5.00;5.00;;;;;;;;5073030;27;51016;-53
2022/09/23 13:36:25;;;;;;;;;7.25;7.00;;;;;;;;5071376;27;50971;-51
2022/09/23 13:38:51;;;;;;;;;12.33;12.00;;;;;;;;5071504;27;51014;-53
2022/09/23 13:41:21;;;;;;;;;11.75;11.00;;;;;;;;5073211;27;51016;-53
2022/09/23 13:43:57;;;;;;;;;10.33;10.33;;;;;;;;5073010;27;52153;-55
2022/09/23 13:46:31;;;;;;;;;11.00;11.00;;;;;;;;5072593;27;50895;-54
2022/09/23 13:48:57;;;;;;;;;9.67;9.67;;;;;;;;5072722;27;51024;-57
2022/09/23 13:51:28;;;;;;;;;8.00;8.00;;;;;;;;5072155;27;51231;-54
2022/09/23 13:53:55;;;;;;;;;9.33;9.00;;;;;;;;5075471;27;52159;-55
2022/09/23 13:56:21;;;;;;;;;12.00;9.33;;;;;;;;5072489;27;51016;-55
2022/09/23 13:58:47;;;;;;;;;8.33;8.00;;;;;;;;5072921;27;51050;-55
2022/09/23 14:01:28;;;;;;;;;10.00;9.00;;;;;;;;5085520;27;51264;-56
2022/09/23 14:03:53;;;;;;;;;12.00;11.00;;;;;;;;5072044;28;52161;-55
2022/09/23 14:06:19;;;;;;;;;8.33;8.00;;;;;;;;5071882;27;51162;-55
2022/09/23 14:08:46;;;;;;;;;9.00;9.00;;;;;;;;5072405;27;51185;-54
2022/09/23 14:11:16;;;;;;;;;8.67;8.33;;;;;;;;5071326;27;51277;-56
2022/09/23 14:13:42;;;;;;;;;11.33;10.33;;;;;;;;5072926;28;51102;-55
2022/09/23 14:16:10;;;;;;;;;11.00;11.00;;;;;;;;5072898;27;51170;-53
2022/09/23 14:18:35;;;;;;;;;9.00;9.00;;;;;;;;5072205;27;51086;-53
2022/09/23 14:21:00;;;;;;;;;8.00;7.33;;;;;;;;5072070;28;51119;-53
2022/09/23 14:23:26;;;;;;;;;10.00;9.00;;;;;;;;5071719;28;51030;-53
2022/09/23 14:25:51;;;;;;;;;11.33;11.00;;;;;;;;5072104;28;51052;-54
2022/09/23 14:28:21;;;;;;;;;11.67;10.33;;;;;;;;5071620;28;51044;-52
2022/09/23 14:30:48;;;;;;;;;9.00;8.00;;;;;;;;5071120;28;50834;-52
2022/09/23 14:33:15;;;;;;;;;9.00;8.00;;;;;;;;5090666;27;51087;-54
2022/09/23 14:35:43;;;;;;;;;9.00;9.00;;;;;;;;5090279;27;50989;-51
2022/09/23 14:41:14;;;;;;;;;10.00;10.00;;;;;;;;5074981;27;51111;-54
2022/09/23 14:43:39;;;;;;;;;10.33;10.33;;;;;;;;5070572;27;51755;-54
2022/09/23 14:46:04;;;;;;;;;10.33;10.00;;;;;;;;5071375;27;50899;-54